Alturas Rancheria, California
Current Conditions -  °F | °C
As of 10:09 AM on Friday 19 Dec 2014 (Local Time) from KAAT Reporting Station
Overcast Overcast  
Wind Chill:   Ceiling: 3600
Heat Index:   Visibility: 10mi
Dew Point:   Wind: 12mph
Humidity: 79%   Direction: 160°SSE
Pressure: 30.05"   Gusts: NA
Location:  41.4836°N, 120.55°W
Report Text: KAAT 191809Z AUTO 16010KT 10SM SCT027 OVC036 05/02 A3005 RMK AO2 T00500017
Loading
Personal Weather Stations






























Interactive Weather Map New forecast layout! Learn more

10-Day Weather Forecast

Advertisements
Track Severe Weather on mobile